Accueil
METAR-TAF:

METAR-TAF

Aéroports :

Calvi, France

Aéroport de Calvi-Sainte-Catherine

latitude: 42-32N, longitude: 008-48E, altitude: 64 m

Observation

Le bulletin a été fait il y a 18 minutes, à 01:30 UTC
Vent 11 kt de sud
Température 27°C
Humidité 54%
Pression 1017 hPa
Visibilité 10 km ou plus
pas de nuages en-dessous de 1500 mètres et pas de cumulonimbus.

METAR: LFKC 240130Z AUTO 17011KT CAVOK 27/17 Q1017 NOSIG

Heure: 03:48 (01:48 UTC)

Prévision

Le bulletin a été fait il y a 8 heures et 48 minutes, à 17:00 UTC
Prévision valable du 23 à 18 UTC au 24 à 18 UTC
Vent 7 kt de sud-ouest
Visibilité 10 km ou plus
pas de nuages en-dessous de 1500 mètres et pas de cumulonimbus.
Temporairement
du 24 à 12 UTC au 24 à 16 UTC
Vent 12 kt de sud-ouest avec des rafales jusqu'à 22 kt

TAF: LFKC 231700Z 2318/2418 22007KT CAVOK TEMPO 2412/2416 22012G22KT TX36/2412Z TN20/2404Z

Observations et prévisions météorologiques de plus de 4000 aéroports (messages METAR et TAF).

Les stations disponibles sont représentées par des disques jaunes et rouges sur la carte.

Passer la souris dessus pour voir le nom de la station.

Cliquer dessus pour voir les observations et prévisions météorologiques.

Pour changer de carte: cliquez sur les boutons verts avec une croix noire pour zoomer, sur le bouton vert avec un tiret pour effectuer un zoom arrière, ou sur les flèches vertes pour les cartes adjacentes.


METAR-TAF: